createdAt,value
2022-10-10T00:00:49.208Z,1.88
2022-10-10T00:03:17.500Z,2.38
2022-10-10T00:05:44.483Z,1.75
2022-10-10T00:08:11.325Z,1.90
2022-10-10T00:10:38.480Z,2.17
2022-10-10T00:13:06.487Z,2.45
2022-10-10T00:15:33.747Z,1.83
2022-10-10T00:18:00.585Z,1.92
2022-10-10T00:20:27.549Z,1.90
2022-10-10T00:22:54.519Z,2.05
2022-10-10T00:25:21.815Z,1.63
2022-10-10T00:27:48.661Z,1.80
2022-10-10T00:30:15.534Z,1.70
2022-10-10T00:32:42.254Z,2.60
2022-10-10T00:35:09.444Z,2.15
2022-10-10T00:37:36.294Z,2.90
2022-10-10T00:40:04.907Z,2.33
2022-10-10T00:42:31.827Z,2.17
2022-10-10T00:45:26.472Z,1.90
2022-10-10T00:48:00.537Z,1.85
2022-10-10T00:50:28.699Z,1.85
2022-10-10T00:52:56.508Z,1.50
2022-10-10T00:55:23.280Z,2.00
2022-10-10T00:57:51.587Z,1.67
2022-10-10T01:00:19.059Z,1.88
2022-10-10T01:02:45.935Z,1.92
2022-10-10T01:05:12.932Z,1.80
2022-10-10T01:07:40.644Z,2.00
2022-10-10T01:10:15.174Z,2.10
2022-10-10T01:12:57.235Z,1.85
2022-10-10T01:15:42.789Z,2.25
2022-10-10T01:23:34.050Z,2.20
2022-10-10T01:26:22.879Z,1.88
2022-10-10T01:29:16.736Z,2.55
2022-10-10T01:31:46.945Z,2.25
2022-10-10T01:34:13.811Z,2.30
2022-10-10T01:36:58.756Z,1.77
2022-10-10T01:39:52.555Z,1.92
2022-10-10T01:42:41.976Z,2.10
2022-10-10T01:45:09.982Z,2.38
2022-10-10T01:47:36.822Z,1.92
2022-10-10T01:50:08.420Z,2.22
2022-10-10T01:53:20.643Z,2.63
2022-10-10T01:56:05.586Z,2.13
2022-10-10T01:58:54.162Z,1.10
2022-10-10T02:01:41.198Z,1.83
2022-10-10T02:04:32.639Z,2.15
2022-10-10T02:07:10.106Z,2.30
2022-10-10T02:09:40.140Z,2.00
2022-10-10T02:12:12.443Z,1.95
2022-10-10T02:14:46.315Z,3.00
2022-10-10T02:17:15.918Z,1.98
2022-10-10T02:19:49.063Z,2.42
2022-10-10T02:22:16.787Z,1.98
2022-10-10T02:24:43.714Z,1.95
2022-10-10T02:27:21.818Z,2.17
2022-10-10T02:29:51.223Z,2.25
2022-10-10T02:32:24.006Z,2.63
2022-10-10T02:34:55.910Z,2.47
2022-10-10T02:37:24.959Z,2.30
2022-10-10T02:39:56.739Z,2.92
2022-10-10T02:42:24.598Z,2.47
2022-10-10T02:44:52.397Z,2.58
2022-10-10T02:47:19.154Z,2.08
2022-10-10T02:49:46.041Z,1.80
2022-10-10T02:52:15.059Z,2.30
2022-10-10T02:54:41.911Z,2.38
2022-10-10T02:57:08.929Z,2.80
2022-10-10T02:59:35.780Z,2.40
2022-10-10T03:02:02.478Z,2.22
2022-10-10T03:04:29.258Z,2.63
2022-10-10T03:06:56.319Z,2.70
2022-10-10T03:09:23.143Z,2.28
2022-10-10T03:11:50.031Z,2.10
2022-10-10T03:14:16.902Z,2.35
2022-10-10T03:16:43.759Z,2.05
2022-10-10T03:19:10.582Z,2.90
2022-10-10T03:21:37.425Z,2.30
2022-10-10T03:24:05.559Z,3.22
2022-10-10T03:26:32.989Z,2.70
2022-10-10T03:29:02.170Z,2.40
2022-10-10T03:31:29.069Z,2.78
2022-10-10T03:33:56.003Z,3.10
2022-10-10T03:36:23.408Z,2.60
2022-10-10T03:38:50.482Z,2.92
2022-10-10T03:41:17.382Z,5.60
2022-10-10T03:43:44.306Z,2.83
2022-10-10T03:46:15.790Z,2.67
2022-10-10T03:48:43.763Z,2.42
2022-10-10T03:51:10.846Z,3.00
2022-10-10T03:53:37.963Z,2.72
2022-10-10T03:56:05.418Z,2.78
2022-10-10T03:58:32.276Z,2.78
2022-10-10T04:01:01.231Z,2.78
2022-10-10T04:03:29.105Z,3.85
2022-10-10T04:05:55.970Z,3.20
2022-10-10T04:08:23.544Z,2.95
2022-10-10T04:10:52.035Z,2.95
2022-10-10T04:13:20.274Z,2.55
2022-10-10T04:15:50.385Z,2.28
2022-10-10T04:18:17.484Z,3.30
2022-10-10T04:20:44.338Z,2.58
2022-10-10T04:23:11.047Z,2.40
2022-10-10T04:25:37.743Z,2.55
2022-10-10T04:28:04.643Z,2.85
2022-10-10T04:30:33.704Z,2.90
2022-10-10T04:33:00.809Z,3.17
2022-10-10T04:35:27.649Z,3.10
2022-10-10T04:37:54.495Z,3.45
2022-10-10T04:40:26.233Z,2.60
2022-10-10T04:42:54.664Z,2.67
2022-10-10T04:45:21.932Z,2.72
2022-10-10T04:47:48.597Z,2.85
2022-10-10T04:50:15.526Z,2.88
2022-10-10T04:52:42.258Z,2.63
2022-10-10T04:55:09.215Z,3.13
2022-10-10T04:57:36.134Z,3.08
2022-10-10T05:00:05.036Z,2.92
2022-10-10T05:02:32.658Z,3.88
2022-10-10T05:04:59.519Z,3.35
2022-10-10T05:07:26.339Z,2.85
2022-10-10T05:09:53.046Z,3.63
2022-10-10T05:12:19.983Z,3.35
2022-10-10T05:14:48.321Z,2.83
2022-10-10T05:17:15.519Z,2.70
2022-10-10T05:19:42.760Z,2.60
2022-10-10T05:22:09.763Z,2.83
2022-10-10T05:24:36.412Z,2.17
2022-10-10T05:27:03.413Z,3.25
2022-10-10T05:29:30.104Z,2.58
2022-10-10T05:31:57.008Z,2.95
2022-10-10T05:34:23.689Z,2.88
2022-10-10T05:36:50.763Z,2.70
2022-10-10T05:39:17.434Z,3.15
2022-10-10T05:41:44.329Z,2.80
2022-10-10T05:44:14.877Z,3.20
2022-10-10T05:46:41.689Z,2.92
2022-10-10T05:49:08.539Z,3.25
2022-10-10T05:51:35.391Z,3.45
2022-10-10T05:54:02.686Z,4.15
2022-10-10T05:56:29.515Z,2.67
2022-10-10T05:58:56.175Z,2.70
2022-10-10T06:01:22.996Z,4.03
2022-10-10T06:03:52.987Z,2.45
2022-10-10T06:06:19.864Z,2.60
2022-10-10T06:08:49.304Z,3.50
2022-10-10T06:11:17.605Z,2.78
2022-10-10T06:13:55.357Z,2.38
2022-10-10T06:16:24.350Z,2.85
2022-10-10T06:18:51.866Z,2.15
2022-10-10T06:21:21.144Z,4.15
2022-10-10T06:23:50.156Z,2.17
2022-10-10T06:26:17.478Z,2.00
2022-10-10T06:28:44.354Z,2.17
2022-10-10T06:31:13.447Z,2.58
2022-10-10T06:33:50.160Z,1.88
2022-10-10T06:37:27.409Z,1.95
2022-10-10T06:40:09.660Z,2.05
2022-10-10T06:54:07.068Z,2.15
2022-10-10T06:56:33.794Z,1.63
2022-10-10T06:59:00.602Z,1.75
2022-10-10T07:01:27.470Z,1.38
2022-10-10T07:03:54.407Z,1.98
2022-10-10T07:06:21.466Z,1.67
2022-10-10T07:08:48.456Z,1.75
2022-10-10T07:11:15.538Z,1.63
2022-10-10T07:13:42.374Z,2.00
2022-10-10T07:16:11.057Z,1.58
2022-10-10T07:18:38.615Z,1.95
2022-10-10T07:21:05.879Z,1.58
2022-10-10T07:23:33.633Z,1.17
2022-10-10T07:26:13.031Z,2.00
2022-10-10T07:28:40.206Z,1.80
2022-10-10T07:31:11.308Z,1.85
2022-10-10T07:33:49.849Z,1.70
2022-10-10T07:36:16.979Z,1.58
2022-10-10T07:38:44.741Z,1.45
2022-10-10T07:41:14.637Z,1.35
2022-10-10T07:43:41.840Z,1.77
2022-10-10T07:46:19.233Z,2.25
2022-10-10T07:48:46.446Z,1.77
2022-10-10T07:51:13.152Z,2.03
2022-10-10T07:53:41.031Z,1.55
2022-10-10T07:56:09.638Z,2.65
2022-10-10T07:58:37.091Z,1.70
2022-10-10T08:01:11.896Z,1.60
2022-10-10T08:03:39.600Z,1.60
2022-10-10T08:06:08.568Z,1.63
2022-10-10T08:08:42.733Z,2.10
2022-10-10T08:11:15.678Z,1.77
2022-10-10T08:13:42.541Z,1.60
2022-10-10T08:16:09.369Z,1.20
2022-10-10T08:18:36.303Z,1.60
2022-10-10T08:21:08.785Z,1.67
2022-10-10T08:23:36.195Z,1.63
2022-10-10T08:26:07.279Z,1.80
2022-10-10T08:28:35.019Z,1.42
2022-10-10T08:31:10.286Z,1.85
2022-10-10T08:36:09.657Z,1.77
2022-10-10T08:38:37.064Z,1.70
2022-10-10T08:41:16.974Z,1.40
2022-10-10T08:43:56.563Z,2.08
2022-10-10T08:46:52.523Z,2.00
2022-10-10T08:49:37.707Z,1.67
2022-10-10T08:52:13.786Z,1.20
2022-10-10T08:54:42.958Z,1.45
2022-10-10T08:57:31.823Z,1.90
2022-10-10T09:00:11.270Z,1.77
2022-10-10T09:02:53.967Z,1.98
2022-10-10T09:05:33.764Z,2.20
2022-10-10T09:08:03.486Z,1.63
2022-10-10T09:10:42.158Z,1.80
2022-10-10T09:13:38.732Z,1.90
2022-10-10T09:16:24.059Z,1.33
2022-10-10T09:18:59.693Z,1.60
2022-10-10T09:21:31.694Z,1.75
2022-10-10T09:24:13.702Z,1.77
2022-10-10T09:26:47.569Z,1.95
2022-10-10T09:29:32.922Z,1.58
2022-10-10T09:32:13.135Z,1.52
2022-10-10T09:34:45.464Z,1.70
2022-10-10T09:37:35.650Z,1.83
2022-10-10T09:40:13.131Z,1.50
2022-10-10T09:42:40.495Z,1.60
2022-10-10T09:45:15.108Z,1.45
2022-10-10T09:47:41.774Z,1.73
2022-10-10T09:50:14.080Z,1.60
2022-10-10T09:52:41.563Z,1.60
2022-10-10T09:55:20.251Z,1.48
2022-10-10T09:57:48.286Z,1.67
2022-10-10T10:00:21.024Z,1.70
2022-10-10T10:03:14.119Z,1.48
2022-10-10T10:05:44.998Z,1.33
2022-10-10T10:08:30.495Z,1.33
2022-10-10T10:10:58.698Z,1.58
2022-10-10T10:13:37.195Z,1.45
2022-10-10T10:16:10.494Z,1.58
2022-10-10T10:18:45.816Z,1.40
2022-10-10T10:21:21.593Z,1.77
2022-10-10T10:23:51.322Z,1.98
2022-10-10T10:26:41.123Z,1.40
2022-10-10T10:29:28.184Z,1.23
2022-10-10T10:32:18.639Z,1.50
2022-10-10T10:35:00.749Z,1.92
2022-10-10T10:37:40.583Z,1.58
2022-10-10T10:40:29.315Z,1.33
2022-10-10T10:43:24.196Z,1.23
2022-10-10T10:46:09.398Z,1.57
2022-10-10T10:48:43.499Z,1.17
2022-10-10T10:51:13.264Z,1.50
2022-10-10T10:53:57.373Z,2.20
2022-10-10T11:00:25.852Z,1.80
2022-10-10T11:02:54.196Z,1.60
2022-10-10T11:05:41.839Z,2.20
2022-10-10T11:08:36.307Z,1.42
2022-10-10T11:11:24.590Z,1.85
2022-10-10T11:14:29.923Z,1.70
2022-10-10T11:17:20.200Z,1.88
2022-10-10T11:19:57.071Z,1.50
2022-10-10T11:22:40.287Z,1.85
2022-10-10T11:25:26.239Z,1.48
2022-10-10T11:28:10.078Z,1.60
2022-10-10T11:30:44.845Z,1.45
2022-10-10T11:33:18.918Z,2.15
2022-10-10T11:35:45.834Z,1.58
2022-10-10T11:38:37.901Z,1.33
2022-10-10T11:41:13.927Z,1.40
2022-10-10T11:43:45.677Z,1.20
2022-10-10T11:46:35.636Z,1.17
2022-10-10T11:49:17.354Z,1.13
2022-10-10T11:52:09.587Z,1.70
2022-10-10T11:55:16.079Z,1.30
2022-10-10T11:57:58.436Z,1.83
2022-10-10T12:00:28.787Z,1.52
2022-10-10T12:02:57.231Z,1.40
2022-10-10T12:05:27.704Z,1.10
2022-10-10T12:07:54.542Z,1.20
2022-10-10T12:10:31.680Z,1.52
2022-10-10T12:13:06.318Z,1.30
2022-10-10T12:15:41.299Z,1.42
2022-10-10T12:18:41.973Z,1.65
2022-10-10T12:21:12.403Z,1.60
2022-10-10T12:23:41.342Z,1.42
2022-10-10T12:26:14.032Z,1.10
2022-10-10T12:28:59.640Z,1.85
2022-10-10T12:31:37.523Z,1.63
2022-10-10T12:34:10.442Z,2.00
2022-10-10T12:36:40.268Z,1.30
2022-10-10T12:39:08.307Z,1.52
2022-10-10T12:41:50.427Z,1.88
2022-10-10T12:44:41.642Z,1.60
2022-10-10T12:47:14.184Z,1.40
2022-10-10T12:50:00.594Z,1.52
2022-10-10T12:52:32.845Z,1.73
2022-10-10T12:55:40.856Z,1.40
2022-10-10T12:58:26.166Z,1.60
2022-10-10T13:00:56.841Z,1.83
2022-10-10T13:03:26.478Z,1.55
2022-10-10T13:05:54.570Z,1.60
2022-10-10T13:08:27.335Z,2.00
2022-10-10T13:11:14.658Z,1.88
2022-10-10T13:13:49.647Z,2.65
2022-10-10T13:16:21.962Z,1.42
2022-10-10T13:18:51.599Z,2.38
2022-10-10T13:21:22.324Z,2.10
2022-10-10T13:26:43.646Z,2.03
2022-10-10T13:29:31.765Z,1.92
2022-10-10T13:32:13.492Z,1.88
2022-10-10T13:34:45.643Z,1.73
2022-10-10T13:37:16.742Z,2.28
2022-10-10T13:39:44.671Z,2.08
2022-10-10T13:42:39.780Z,1.60
2022-10-10T13:45:30.332Z,1.70
2022-10-10T13:48:00.414Z,1.98
2022-10-10T13:50:27.083Z,2.20
2022-10-10T13:53:21.881Z,4.25
2022-10-10T13:55:48.711Z,1.88
2022-10-10T13:58:16.802Z,1.95
2022-10-10T14:00:43.871Z,1.98
2022-10-10T14:03:20.249Z,1.83
2022-10-10T14:05:47.114Z,2.10
2022-10-10T14:08:34.255Z,1.67
2022-10-10T14:11:01.407Z,1.60
2022-10-10T14:13:30.401Z,2.10
2022-10-10T14:16:33.041Z,1.55
2022-10-10T14:19:02.785Z,2.00
2022-10-10T14:21:29.734Z,1.80
2022-10-10T14:23:56.466Z,3.15
2022-10-10T14:26:23.820Z,1.83
2022-10-10T14:28:50.685Z,1.77
2022-10-10T14:31:17.983Z,1.70
2022-10-10T14:33:44.807Z,1.70
2022-10-10T14:36:13.081Z,2.10
2022-10-10T14:38:39.991Z,1.65
2022-10-10T14:41:07.545Z,2.58
2022-10-10T14:43:34.515Z,1.88
2022-10-10T14:46:04.668Z,2.97
2022-10-10T14:48:31.333Z,2.75
2022-10-10T14:50:58.214Z,1.73
2022-10-10T14:53:25.100Z,2.22
2022-10-10T14:55:56.081Z,1.90
2022-10-10T14:58:23.579Z,2.20
2022-10-10T15:00:52.434Z,1.75
2022-10-10T15:03:19.726Z,2.28
2022-10-10T15:05:48.551Z,2.10
2022-10-10T15:08:20.699Z,1.90
2022-10-10T15:10:48.269Z,2.08
2022-10-10T15:13:25.095Z,2.63
2022-10-10T15:15:55.000Z,1.63
2022-10-10T15:18:52.673Z,2.22
2022-10-10T15:21:12.228Z,2.38
2022-10-10T15:23:39.603Z,2.30
2022-10-10T15:26:06.887Z,2.65
2022-10-10T15:28:34.597Z,2.85
2022-10-10T15:31:02.194Z,2.08
2022-10-10T15:33:29.041Z,2.50
2022-10-10T15:36:10.435Z,3.05
2022-10-10T15:38:40.111Z,2.42
2022-10-10T15:41:09.547Z,2.22
2022-10-10T15:43:47.352Z,3.17
2022-10-10T15:46:14.238Z,3.03
2022-10-10T15:48:41.018Z,3.28
2022-10-10T15:51:09.097Z,3.00
2022-10-10T15:53:36.039Z,2.42
2022-10-10T15:56:10.009Z,3.15
2022-10-10T15:58:39.232Z,2.23
2022-10-10T16:01:14.338Z,3.88
2022-10-10T16:03:41.892Z,3.28
2022-10-10T16:06:09.652Z,2.60
2022-10-10T16:08:37.583Z,2.95
2022-10-10T16:11:09.626Z,3.10
2022-10-10T16:13:38.071Z,2.58
2022-10-10T16:16:07.423Z,2.92
2022-10-10T16:18:39.986Z,2.45
2022-10-10T16:21:11.752Z,2.65
2022-10-10T16:23:39.221Z,3.05
2022-10-10T16:26:09.119Z,2.88
2022-10-10T16:28:36.070Z,2.70
2022-10-10T16:31:08.379Z,3.17
2022-10-10T16:33:36.855Z,2.58
2022-10-10T16:36:14.903Z,2.75
2022-10-10T16:38:42.137Z,2.67
2022-10-10T16:41:29.156Z,2.58
2022-10-10T16:44:01.936Z,3.42
2022-10-10T16:46:29.087Z,2.60
2022-10-10T16:48:59.772Z,2.92
2022-10-10T16:51:29.904Z,2.47
2022-10-10T16:54:00.883Z,3.40
2022-10-10T16:56:28.120Z,2.88
2022-10-10T16:58:57.943Z,3.45
2022-10-10T17:01:27.787Z,2.83
2022-10-10T17:03:56.935Z,3.25
2022-10-10T17:06:23.835Z,3.13
2022-10-10T17:08:53.226Z,3.50
2022-10-10T17:11:22.489Z,2.60
2022-10-10T17:13:50.451Z,3.92
2022-10-10T17:19:17.084Z,3.38
2022-10-10T17:21:43.986Z,3.15
2022-10-10T17:24:10.734Z,3.13
2022-10-10T17:26:37.643Z,2.92
2022-10-10T17:29:04.869Z,2.78
2022-10-10T17:31:31.778Z,2.75
2022-10-10T17:33:58.777Z,2.35
2022-10-10T17:36:27.682Z,4.57
2022-10-10T17:38:56.278Z,2.70
2022-10-10T17:41:25.788Z,3.05
2022-10-10T17:43:53.010Z,2.72
2022-10-10T17:46:35.348Z,3.03
2022-10-10T17:49:04.856Z,2.70
2022-10-10T17:51:32.022Z,3.42
2022-10-10T17:54:00.719Z,3.03
2022-10-10T17:56:28.964Z,3.03
2022-10-10T17:58:56.324Z,2.90
2022-10-10T18:01:23.399Z,2.72
2022-10-10T18:03:50.578Z,3.25
2022-10-10T18:06:20.829Z,3.83
2022-10-10T18:08:49.346Z,3.17
2022-10-10T18:11:21.527Z,3.30
2022-10-10T18:13:48.567Z,3.60
2022-10-10T18:16:17.907Z,3.35
2022-10-10T18:18:51.049Z,3.40
2022-10-10T18:21:22.903Z,3.30
2022-10-10T18:23:50.947Z,3.55
2022-10-10T18:26:21.084Z,3.20
2022-10-10T18:28:49.212Z,3.85
2022-10-10T18:31:33.279Z,3.45
2022-10-10T18:34:00.885Z,3.60
2022-10-10T18:36:30.048Z,3.05
2022-10-10T18:39:01.580Z,3.42
2022-10-10T18:41:34.233Z,3.55
2022-10-10T18:44:03.590Z,3.50
2022-10-10T18:46:30.767Z,3.92
2022-10-10T18:48:57.715Z,3.83
2022-10-10T18:51:26.591Z,4.03
2022-10-10T18:53:58.670Z,3.47
2022-10-10T18:56:25.521Z,3.83
2022-10-10T18:58:56.157Z,3.92
2022-10-10T19:01:25.604Z,3.78
2022-10-10T19:03:53.705Z,3.58
2022-10-10T19:06:22.866Z,4.20
2022-10-10T19:08:51.896Z,3.80
2022-10-10T19:11:25.163Z,3.60
2022-10-10T19:13:52.622Z,4.07
2022-10-10T19:16:20.625Z,4.20
2022-10-10T19:18:47.921Z,3.45
2022-10-10T19:21:16.172Z,3.97
2022-10-10T19:23:43.785Z,4.20
2022-10-10T19:26:16.840Z,4.63
2022-10-10T19:28:44.165Z,5.40
2022-10-10T19:31:16.234Z,5.00
2022-10-10T19:33:44.389Z,4.75
2022-10-10T19:36:12.815Z,5.88
2022-10-10T19:38:41.870Z,5.75
2022-10-10T19:41:12.998Z,5.78
2022-10-10T19:43:44.746Z,5.65
2022-10-10T19:46:14.539Z,6.30
2022-10-10T19:48:41.919Z,5.75
2022-10-10T19:51:11.657Z,7.70
2022-10-10T19:53:39.535Z,6.47
2022-10-10T19:56:10.267Z,6.00
2022-10-10T19:58:37.450Z,6.68
2022-10-10T20:01:09.507Z,7.50
2022-10-10T20:03:36.699Z,7.32
2022-10-10T20:06:04.663Z,7.15
2022-10-10T20:08:32.139Z,6.97
2022-10-10T20:10:59.536Z,8.00
2022-10-10T20:13:26.670Z,6.90
2022-10-10T20:15:53.594Z,7.40
2022-10-10T20:18:23.109Z,8.18
2022-10-10T20:20:52.347Z,7.82
2022-10-10T20:23:21.764Z,6.93
2022-10-10T20:25:48.780Z,7.63
2022-10-10T20:28:18.006Z,7.82
2022-10-10T20:30:48.581Z,8.27
2022-10-10T20:33:20.508Z,8.57
2022-10-10T20:35:51.117Z,7.95
2022-10-10T20:38:20.535Z,8.48
2022-10-10T20:40:47.370Z,7.95
2022-10-10T20:43:15.341Z,7.88
2022-10-10T20:45:42.164Z,8.38
2022-10-10T20:48:10.027Z,7.45
2022-10-10T20:50:38.155Z,8.85
2022-10-10T20:53:06.690Z,8.57
2022-10-10T20:55:33.932Z,7.88
2022-10-10T20:58:00.764Z,7.60
2022-10-10T21:00:27.703Z,8.25
2022-10-10T21:02:56.220Z,9.05
2022-10-10T21:05:23.221Z,7.80
2022-10-10T21:07:50.024Z,8.45
2022-10-10T21:10:17.076Z,8.38
2022-10-10T21:12:44.292Z,10.20
2022-10-10T21:15:11.212Z,8.88
2022-10-10T21:17:38.275Z,8.40
2022-10-10T21:20:05.751Z,7.50
2022-10-10T21:22:32.850Z,8.60
2022-10-10T21:24:59.614Z,8.55
2022-10-10T21:27:26.402Z,8.32
2022-10-10T21:29:53.215Z,8.70
2022-10-10T21:32:20.028Z,8.73
2022-10-10T21:34:46.851Z,9.02
2022-10-10T21:37:13.575Z,8.85
2022-10-10T21:39:40.406Z,8.98
2022-10-10T21:42:07.331Z,9.07
2022-10-10T21:44:34.195Z,9.82
2022-10-10T21:47:00.911Z,9.43
2022-10-10T21:49:27.754Z,10.25
2022-10-10T21:51:54.402Z,9.80
2022-10-10T21:54:21.203Z,9.15
2022-10-10T21:56:47.975Z,9.75
2022-10-10T21:59:14.835Z,9.70
2022-10-10T22:01:42.821Z,9.23
2022-10-10T22:04:10.454Z,9.50
2022-10-10T22:06:38.369Z,8.77
2022-10-10T22:09:05.634Z,8.70
2022-10-10T22:11:34.452Z,8.43
2022-10-10T22:14:04.673Z,9.32
2022-10-10T22:16:32.746Z,8.48
2022-10-10T22:19:00.429Z,8.98
2022-10-10T22:21:30.873Z,8.52
2022-10-10T22:24:02.296Z,9.35
2022-10-10T22:26:30.309Z,8.52
2022-10-10T22:28:57.351Z,8.02
2022-10-10T22:31:24.275Z,8.82
2022-10-10T22:33:51.046Z,8.65
2022-10-10T22:36:17.750Z,8.20
2022-10-10T22:38:45.416Z,8.35
2022-10-10T22:41:13.463Z,8.45
2022-10-10T22:43:40.394Z,8.93
2022-10-10T22:46:08.180Z,9.15
2022-10-10T22:48:35.680Z,8.88
2022-10-10T22:51:05.948Z,8.60
2022-10-10T22:53:33.115Z,8.48
2022-10-10T22:56:00.007Z,8.75
2022-10-10T22:58:26.930Z,8.65
2022-10-10T23:00:53.631Z,8.15
2022-10-10T23:03:20.702Z,8.98
2022-10-10T23:05:47.627Z,8.25
2022-10-10T23:08:14.602Z,9.20
2022-10-10T23:10:41.504Z,8.23
2022-10-10T23:13:08.399Z,9.00
2022-10-10T23:15:35.099Z,8.45
2022-10-10T23:18:01.950Z,8.80
2022-10-10T23:20:28.915Z,8.95
2022-10-10T23:22:55.840Z,8.10
2022-10-10T23:25:22.538Z,9.43
2022-10-10T23:27:49.812Z,9.23
2022-10-10T23:30:17.397Z,9.05
2022-10-10T23:32:44.162Z,8.45
2022-10-10T23:35:11.661Z,8.05
2022-10-10T23:37:38.440Z,8.40
2022-10-10T23:40:05.775Z,7.65
2022-10-10T23:42:33.148Z,8.45
2022-10-10T23:45:00.054Z,8.55
2022-10-10T23:47:27.331Z,8.75
2022-10-10T23:49:54.219Z,8.95
2022-10-10T23:52:20.967Z,8.93
2022-10-10T23:54:47.836Z,10.02
2022-10-10T23:57:14.772Z,10.07
2022-10-10T23:59:41.739Z,9.48
